Time;durP1;ratioP1;P1;durP2;ratioP2;P2;SDS_P1;SDS_P2;PMS_P1;PMS_P2;Temp;Humidity;BMP_temperature;BMP_pressure;BME280_temperature;BME280_humidity;BME280_pressure;Samples;Min_cycle;Max_cycle;Signal;HPM_P1;HPM_P2
2021/07/20 00:01:00;;;;;;;20.15;10.35;;;;;;;12.05;82.84;102354.19;5012330;28;20057;-75
2021/07/20 00:03:25;;;;;;;18.50;10.13;;;;;;;12.04;83.18;102352.50;5011850;28;20073;-75
2021/07/20 00:05:50;;;;;;;21.55;10.73;;;;;;;12.04;82.55;102357.81;5012689;28;20042;-75
2021/07/20 00:08:17;;;;;;;18.30;10.13;;;;;;;12.03;83.68;102345.44;5012501;28;20034;-74
2021/07/20 00:10:49;;;;;;;19.15;10.68;;;;;;;12.02;83.59;102351.75;5011880;28;20339;-75
2021/07/20 00:13:14;;;;;;;19.60;10.60;;;;;;;12.01;83.77;102359.88;5012242;28;20056;-75
2021/07/20 00:15:40;;;;;;;21.05;10.73;;;;;;;11.97;83.64;102357.44;5011625;28;20025;-75
2021/07/20 00:18:11;;;;;;;19.63;11.05;;;;;;;11.96;84.25;102355.72;5012196;28;20030;-75
2021/07/20 00:20:37;;;;;;;22.02;11.45;;;;;;;11.93;83.84;102355.09;5015184;28;20410;-75
2021/07/20 00:23:04;;;;;;;24.38;11.52;;;;;;;11.91;84.06;102351.63;5015955;28;20045;-75
2021/07/20 00:25:29;;;;;;;21.23;11.20;;;;;;;11.90;84.33;102353.47;5030632;28;20425;-75
2021/07/20 00:27:56;;;;;;;20.52;11.63;;;;;;;11.90;83.89;102356.13;5016141;28;20029;-74
2021/07/20 00:30:22;;;;;;;21.77;11.32;;;;;;;11.88;83.80;102346.53;5016051;28;20091;-74
2021/07/20 00:32:48;;;;;;;22.92;11.80;;;;;;;11.86;83.96;102353.81;5014921;28;20513;-74
2021/07/20 00:35:14;;;;;;;22.10;11.88;;;;;;;11.83;84.15;102349.53;5015491;28;20064;-74
2021/07/20 00:37:41;;;;;;;22.02;11.95;;;;;;;11.80;84.54;102355.09;5015105;28;20030;-75
2021/07/20 00:40:10;;;;;;;22.90;11.68;;;;;;;11.77;84.34;102350.81;5015759;28;20034;-75
2021/07/20 00:42:36;;;;;;;26.88;12.57;;;;;;;11.77;84.82;102355.31;5014702;28;20037;-75
2021/07/20 00:45:03;;;;;;;20.95;12.13;;;;;;;11.74;84.49;102351.03;5015744;28;20030;-74
2021/07/20 00:47:28;;;;;;;21.73;11.65;;;;;;;11.75;84.96;102351.91;5014754;28;20437;-75
2021/07/20 00:49:53;;;;;;;23.80;11.93;;;;;;;11.73;84.63;102354.66;5014054;28;20042;-74
2021/07/20 00:52:19;;;;;;;22.17;11.50;;;;;;;11.75;85.22;102351.91;5015443;28;20033;-74
2021/07/20 00:54:45;;;;;;;21.17;11.15;;;;;;;11.73;84.86;102351.16;5014802;28;20116;-74
2021/07/20 00:57:11;;;;;;;23.27;11.73;;;;;;;11.73;85.33;102349.31;5030553;28;20030;-74
2021/07/20 00:59:37;;;;;;;23.15;11.10;;;;;;;11.71;84.77;102351.25;5014477;28;20036;-74
2021/07/20 01:02:04;;;;;;;23.08;12.27;;;;;;;11.70;85.09;102352.22;5014848;28;20597;-74
2021/07/20 01:04:29;;;;;;;23.63;12.55;;;;;;;11.68;85.29;102361.31;5014439;28;20100;-75
2021/07/20 01:06:56;;;;;;;19.83;10.82;;;;;;;11.64;84.89;102353.53;5014987;28;20042;-75
2021/07/20 01:09:23;;;;;;;23.65;11.70;;;;;;;11.64;85.32;102355.31;5015212;28;20057;-75
2021/07/20 01:11:50;;;;;;;22.10;11.70;;;;;;;11.61;85.04;102351.09;5014573;28;20033;-74
2021/07/20 01:14:16;;;;;;;22.20;11.90;;;;;;;11.59;84.91;102349.47;5015242;28;20517;-75
2021/07/20 01:16:43;;;;;;;22.85;11.82;;;;;;;11.58;85.68;102353.94;5014325;28;20045;-75
2021/07/20 01:19:13;;;;;;;22.45;12.10;;;;;;;11.57;85.89;102346.03;5014713;28;20046;-75
2021/07/20 01:21:40;;;;;;;22.35;11.93;;;;;;;11.56;85.75;102349.69;5014633;28;20026;-75
2021/07/20 01:24:11;;;;;;;27.33;12.80;;;;;;;11.54;85.73;102344.47;5014846;28;20029;-75
2021/07/20 01:26:37;;;;;;;26.98;12.10;;;;;;;11.53;85.87;102342.75;5014356;28;20509;-75
2021/07/20 01:29:04;;;;;;;26.58;12.52;;;;;;;11.51;85.63;102338.50;5015055;28;20034;-74
2021/07/20 01:31:33;;;;;;;25.27;12.02;;;;;;;11.49;85.55;102338.59;5013503;28;20037;-74
2021/07/20 01:34:00;;;;;;;24.52;12.13;;;;;;;11.48;86.04;102336.91;5014770;28;20026;-77
2021/07/20 01:36:28;;;;;;;24.48;12.40;;;;;;;11.46;86.13;102334.38;5014591;28;20026;-77
2021/07/20 01:38:55;;;;;;;24.95;12.82;;;;;;;11.46;86.78;102334.38;5013950;28;20061;-75
2021/07/20 01:41:21;;;;;;;24.08;12.13;;;;;;;11.44;86.45;102333.59;5014514;28;20034;-75
2021/07/20 01:43:59;;;;;;;27.23;13.63;;;;;;;11.44;86.69;102340.75;5013665;28;20049;-74
2021/07/20 01:46:29;;;;;;;29.23;13.63;;;;;;;11.41;86.57;102328.47;5014434;28;20034;-74
2021/07/20 01:48:57;;;;;;;24.60;12.65;;;;;;;11.40;86.64;102334.75;5012456;28;20177;-74
2021/07/20 01:51:25;;;;;;;28.88;12.70;;;;;;;11.39;86.61;102335.75;5014629;28;20038;-75
2021/07/20 01:53:51;;;;;;;26.75;12.70;;;;;;;11.38;86.57;102338.53;5013558;28;20034;-77
2021/07/20 01:56:19;;;;;;;24.17;11.63;;;;;;;11.35;86.80;102336.91;5014319;28;20085;-75
2021/07/20 01:58:44;;;;;;;25.10;12.57;;;;;;;11.35;86.55;102347.56;5013271;28;20034;-75
2021/07/20 02:01:19;;;;;;;24.40;12.52;;;;;;;11.32;86.66;102339.78;5013094;28;20030;-75
2021/07/20 02:09:03;;;;;;;31.38;13.68;;;;;;;11.25;86.95;102339.34;5013570;28;20061;-76
2021/07/20 02:11:33;;;;;;;30.20;12.73;;;;;;;11.21;86.66;102342.34;5014018;28;20033;-77
2021/07/20 02:14:04;;;;;;;27.23;13.95;;;;;;;11.20;87.29;102348.66;5013349;28;20033;-74
2021/07/20 02:16:32;;;;;;;;;;;;;;;11.15;87.30;102346.31;5014365;28;20041;-75
2021/07/20 02:19:02;;;;;;;34.13;13.80;;;;;;;11.11;87.28;102345.66;5012860;28;20467;-74
2021/07/20 02:21:29;;;;;;;36.58;14.82;;;;;;;11.11;87.44;102353.66;5013693;28;20028;-77
2021/07/20 02:23:55;;;;;;;30.08;14.18;;;;;;;11.11;87.84;102348.31;5013252;28;20061;-77
2021/07/20 02:26:22;;;;;;;33.05;15.48;;;;;;;11.12;87.99;102346.50;5014043;28;20030;-77
2021/07/20 02:28:50;;;;;;;33.08;14.27;;;;;;;11.11;87.84;102350.97;5013020;28;20076;-77
2021/07/20 02:31:18;;;;;;;32.92;14.95;;;;;;;11.12;87.90;102349.16;5013553;28;20031;-77
2021/07/20 02:33:45;;;;;;;31.85;13.35;;;;;;;11.13;87.90;102352.69;5012965;28;20069;-77
2021/07/20 02:36:11;;;;;;;36.33;14.95;;;;;;;11.14;87.72;102357.03;5013405;28;20113;-77
2021/07/20 02:38:40;;;;;;;33.03;14.52;;;;;;;11.11;88.02;102358.97;5013392;28;20152;-77
2021/07/20 02:41:06;;;;;;;36.45;15.40;;;;;;;11.08;88.07;102351.19;5013117;28;20069;-74
2021/07/20 02:43:34;;;;;;;39.35;15.63;;;;;;;11.08;88.35;102356.53;5013494;28;20049;-77
2021/07/20 02:46:00;;;;;;;30.90;13.85;;;;;;;11.03;87.84;102349.78;5012652;28;20462;-77
2021/07/20 02:48:28;;;;;;;39.15;15.90;;;;;;;11.01;88.42;102347.25;5013182;28;20034;-76
2021/07/20 02:50:54;;;;;;;34.33;14.07;;;;;;;10.99;88.27;102353.63;5012539;28;20116;-74
2021/07/20 02:53:22;;;;;;;38.13;16.08;;;;;;;10.94;88.41;102349.47;5012339;28;20034;-77
2021/07/20 02:55:52;;;;;;;29.23;13.55;;;;;;;10.92;88.32;102347.88;5012781;28;20030;-76
2021/07/20 02:58:18;;;;;;;30.00;13.32;;;;;;;10.89;88.17;102351.59;5013157;28;20125;-77
2021/07/20 03:00:45;;;;;;;36.85;14.32;;;;;;;10.87;88.25;102345.53;5012545;28;20109;-75
2021/07/20 03:03:10;;;;;;;35.58;14.80;;;;;;;10.86;88.41;102351.81;5012968;28;20049;-76
2021/07/20 03:05:38;;;;;;;33.35;14.75;;;;;;;10.86;88.76;102343.81;5013259;28;20045;-77
2021/07/20 03:08:06;;;;;;;36.97;14.02;;;;;;;10.84;88.60;102347.53;5011493;28;20092;-77
2021/07/20 03:10:33;;;;;;;35.90;15.20;;;;;;;10.83;88.58;102341.38;5012988;28;20041;-77
2021/07/20 03:13:03;;;;;;;37.17;15.23;;;;;;;10.85;88.66;102349.25;5012422;28;20040;-77
2021/07/20 03:15:30;;;;;;;33.60;14.07;;;;;;;10.86;88.61;102342.97;5013027;28;20045;-77
2021/07/20 03:17:58;;;;;;;35.17;14.25;;;;;;;10.88;88.59;102352.56;5012302;28;20363;-77
2021/07/20 03:20:26;;;;;;;31.40;14.27;;;;;;;10.85;88.34;102342.13;5013419;28;20034;-76
2021/07/20 03:22:52;;;;;;;37.03;14.30;;;;;;;10.83;88.32;102349.34;5012571;28;20038;-76
2021/07/20 03:25:19;;;;;;;30.55;13.60;;;;;;;10.80;88.29;102349.56;5012953;28;20034;-77
2021/07/20 03:27:45;;;;;;;37.75;16.00;;;;;;;10.77;88.22;102355.09;5012805;28;20052;-74
2021/07/20 03:30:12;;;;;;;39.20;15.48;;;;;;;10.74;88.50;102348.16;5012254;28;20030;-74
2021/07/20 03:32:44;;;;;;;41.05;15.70;;;;;;;10.73;88.74;102348.25;5012409;28;20100;-74
2021/07/20 03:35:14;;;;;;;33.97;14.57;;;;;;;10.72;88.86;102347.41;5010786;28;20038;-75
2021/07/20 03:37:41;;;;;;;36.13;15.30;;;;;;;10.70;88.82;102345.81;5012657;28;20080;-74
2021/07/20 03:40:08;;;;;;;36.58;14.55;;;;;;;10.68;88.51;102342.41;5011838;28;20397;-75
2021/07/20 03:42:33;;;;;;;33.83;14.02;;;;;;;10.65;88.30;102343.47;5012450;28;20113;-75
2021/07/20 03:45:00;;;;;;;36.58;13.27;;;;;;;10.63;88.45;102347.16;5011546;28;20117;-75
2021/07/20 03:47:26;;;;;;;33.13;14.18;;;;;;;10.61;88.54;102347.28;5012766;28;20463;-75
2021/07/20 03:49:53;;;;;;;42.22;15.02;;;;;;;10.59;88.49;102347.38;5012008;28;20386;-75
2021/07/20 03:52:20;;;;;;;36.05;14.32;;;;;;;10.59;88.53;102341.22;5012591;28;20034;-74
2021/07/20 03:54:46;;;;;;;41.53;14.75;;;;;;;10.59;88.77;102347.38;5015122;28;20072;-75
2021/07/20 03:57:17;;;;;;;32.17;14.02;;;;;;;10.61;88.87;102349.09;5015723;28;20160;-74
2021/07/20 03:59:43;;;;;;;34.67;13.73;;;;;;;10.62;89.08;102345.47;5016461;28;20113;-74
2021/07/20 04:02:09;;;;;;;38.10;15.00;;;;;;;10.62;89.23;102346.31;5014679;28;20026;-75
2021/07/20 04:04:38;;;;;;;34.92;14.13;;;;;;;10.64;88.84;102351.53;5016377;28;20050;-75
2021/07/20 04:07:07;;;;;;;35.00;14.35;;;;;;;10.63;88.92;102347.16;5015754;28;20034;-75
2021/07/20 04:09:34;;;;;;;33.05;14.50;;;;;;;10.64;88.66;102349.72;5017045;28;20030;-75
2021/07/20 04:12:00;;;;;;;38.63;15.55;;;;;;;10.67;88.60;102351.34;5015878;28;20125;-75
2021/07/20 04:14:26;;;;;;;35.85;14.52;;;;;;;10.68;88.41;102353.91;5016767;28;20038;-76
2021/07/20 04:16:52;;;;;;;41.95;14.77;;;;;;;10.69;88.50;102354.75;5015623;28;20045;-76
2021/07/20 04:19:18;;;;;;;37.47;14.73;;;;;;;10.71;88.71;102345.69;5016616;28;20026;-75
2021/07/20 04:21:44;;;;;;;32.85;14.52;;;;;;;10.73;88.28;102348.25;5016154;28;20061;-75
2021/07/20 04:24:11;;;;;;;37.30;15.23;;;;;;;10.73;88.18;102353.59;5015299;28;20034;-75
2021/07/20 04:26:37;;;;;;;35.83;14.02;;;;;;;10.76;88.45;102348.06;5015947;28;20034;-76
2021/07/20 04:29:02;;;;;;;42.10;14.32;;;;;;;10.79;88.31;102349.66;5015148;28;20065;-78
2021/07/20 04:31:29;;;;;;;38.47;14.73;;;;;;;10.83;88.30;102349.34;5016151;28;20057;-75
2021/07/20 04:33:56;;;;;;;35.35;15.00;;;;;;;10.84;88.05;102353.72;5015377;28;20034;-76
2021/07/20 04:36:22;;;;;;;34.85;14.02;;;;;;;10.87;88.11;102347.34;5015931;28;20038;-76
2021/07/20 04:38:48;;;;;;;36.90;14.13;;;;;;;10.90;87.99;102353.31;5015648;28;20036;-76
2021/07/20 04:41:20;;;;;;;35.30;14.98;;;;;;;10.94;87.88;102361.94;5014863;28;20324;-76
2021/07/20 04:43:45;;;;;;;;;;;;;;;10.98;87.66;102357.25;5016036;28;20088;-76
2021/07/20 04:46:11;;;;;;;34.80;14.10;;;;;;;11.01;87.63;102357.91;5015098;28;19909;-75
2021/07/20 04:48:38;;;;;;;39.03;15.30;;;;;;;11.05;87.74;102358.56;5015550;28;20061;-75
2021/07/20 04:51:04;;;;;;;35.67;15.13;;;;;;;11.08;87.47;102351.19;5014914;28;20493;-76
2021/07/20 04:53:29;;;;;;;31.67;13.63;;;;;;;11.14;87.49;102351.72;5015312;28;20041;-76
2021/07/20 04:55:55;;;;;;;32.22;13.73;;;;;;;11.19;87.32;102354.94;5015286;28;20030;-75
2021/07/20 04:58:20;;;;;;;32.30;14.05;;;;;;;11.24;87.27;102352.78;5014818;28;20065;-75
2021/07/20 05:00:51;;;;;;;29.73;13.98;;;;;;;11.28;87.15;102360.47;5015403;28;20026;-76
2021/07/20 05:03:18;;;;;;;31.23;13.95;;;;;;;11.35;87.28;102360.06;5014802;28;20230;-76
2021/07/20 05:05:44;;;;;;;30.40;13.30;;;;;;;11.41;87.12;102365.78;5015475;28;20450;-76
2021/07/20 05:08:14;;;;;;;33.65;14.82;;;;;;;11.47;87.18;102364.53;5014701;28;20065;-75
2021/07/20 05:10:44;;;;;;;40.57;15.40;;;;;;;11.55;87.01;102369.31;5015539;28;20026;-75
2021/07/20 05:13:13;;;;;;;31.83;14.45;;;;;;;11.61;86.75;102364.41;5014489;28;20030;-75
2021/07/20 05:15:38;;;;;;;32.10;14.02;;;;;;;11.70;86.22;102364.69;5014856;28;20033;-76
2021/07/20 05:18:04;;;;;;;32.47;14.57;;;;;;;11.76;86.50;102372.25;5014441;28;20034;-77
2021/07/20 05:20:30;;;;;;;37.08;14.68;;;;;;;11.83;86.21;102377.03;5013609;28;20040;-76
2021/07/20 05:22:56;;;;;;;32.30;14.27;;;;;;;11.89;85.96;102369.59;5014812;28;20041;-75
2021/07/20 05:25:22;;;;;;;36.60;14.38;;;;;;;11.96;85.51;102371.72;5014311;28;20143;-74
2021/07/20 05:27:52;;;;;;;36.25;15.00;;;;;;;12.04;85.31;102371.16;5014694;28;20188;-73
2021/07/20 05:30:18;;;;;;;32.72;14.50;;;;;;;12.13;84.42;102374.97;5014262;28;20040;-73
2021/07/20 05:32:45;;;;;;;34.60;14.25;;;;;;;12.21;84.54;102364.63;5014811;28;20034;-74
2021/07/20 05:35:16;;;;;;;31.65;13.75;;;;;;;12.28;84.24;102365.00;5014155;28;20142;-74
2021/07/20 05:37:42;;;;;;;;;;;;;;;12.35;84.05;102371.59;5014847;28;20034;-74
2021/07/20 05:40:10;;;;;;;28.48;12.27;;;;;;;12.45;83.46;102361.94;5014181;28;19917;-72
2021/07/20 05:42:36;;;;;;;24.20;12.48;;;;;;;12.55;82.37;102371.94;5013584;28;20030;-72
2021/07/20 05:45:03;;;;;;;27.80;12.65;;;;;;;12.61;82.20;102366.97;5014352;28;20038;-72
2021/07/20 05:47:33;;;;;;;28.75;13.52;;;;;;;12.70;81.22;102368.09;5014375;28;20042;-72
2021/07/20 05:49:59;;;;;;;27.45;12.63;;;;;;;12.78;81.76;102373.72;5014177;28;20117;-73
2021/07/20 05:52:26;;;;;;;26.75;13.23;;;;;;;12.85;81.49;102363.41;5013540;28;20107;-73
2021/07/20 05:54:53;;;;;;;28.27;13.45;;;;;;;12.93;82.34;102373.50;5013206;28;20038;-74
2021/07/20 05:57:22;;;;;;;25.30;12.38;;;;;;;12.99;81.39;102371.22;5013684;28;20034;-75
2021/07/20 05:59:48;;;;;;;24.95;12.50;;;;;;;13.11;81.91;102372.13;5014226;28;20470;-75
2021/07/20 06:02:14;;;;;;;25.98;12.75;;;;;;;13.25;80.66;102371.03;5013352;28;20104;-73
2021/07/20 06:04:41;;;;;;;23.38;12.30;;;;;;;13.40;79.59;102371.69;5013687;28;20389;-74
2021/07/20 06:07:09;;;;;;;25.27;11.98;;;;;;;13.55;77.87;102369.63;5013326;28;20466;-73
2021/07/20 06:09:35;;;;;;;22.95;12.32;;;;;;;13.70;79.19;102379.13;5012970;28;20124;-74
2021/07/20 06:12:04;;;;;;;22.30;12.10;;;;;;;13.83;78.46;102370.97;5013702;28;20034;-72
2021/07/20 06:14:31;;;;;;;22.33;11.60;;;;;;;13.97;78.26;102371.69;5009787;28;20061;-74
2021/07/20 06:16:57;;;;;;;20.83;11.13;;;;;;;14.09;77.43;102376.91;5010403;28;20036;-74
2021/07/20 06:19:23;;;;;;;20.05;11.25;;;;;;;14.23;78.14;102372.25;5010080;28;20033;-73
2021/07/20 06:21:49;;;;;;;20.75;10.80;;;;;;;14.38;76.21;102376.31;5011000;28;20092;-71
2021/07/20 06:24:15;;;;;;;19.88;10.93;;;;;;;14.51;73.63;102380.66;5009821;28;20438;-74
2021/07/20 06:26:42;;;;;;;20.25;10.55;;;;;;;14.65;74.06;102377.72;5010801;28;20026;-72
2021/07/20 06:29:09;;;;;;;22.42;10.68;;;;;;;14.79;73.48;102374.75;5012537;28;20084;-72
2021/07/20 06:31:42;;;;;;;16.90;10.52;;;;;;;14.91;74.34;102382.72;5013141;28;20112;-72
2021/07/20 06:34:08;;;;;;;18.13;10.13;;;;;;;15.01;73.61;102377.44;5028160;28;20037;-72
2021/07/20 06:36:35;;;;;;;17.52;9.27;;;;;;;15.08;71.30;102382.13;5013840;28;20038;-72
2021/07/20 06:39:03;;;;;;;18.60;9.27;;;;;;;15.19;70.43;102378.50;5013180;28;20467;-71
2021/07/20 06:41:33;;;;;;;12.85;8.27;;;;;;;15.25;68.36;102377.16;5012525;28;20040;-72
2021/07/20 06:43:58;;;;;;;14.82;8.98;;;;;;;15.34;70.09;102387.06;5013477;28;20054;-72
2021/07/20 06:46:24;;;;;;;20.98;9.57;;;;;;;15.44;70.97;102382.59;5011141;28;20084;-72
2021/07/20 06:48:50;;;;;;;15.88;7.95;;;;;;;15.60;69.86;102392.84;5012319;28;20033;-72
2021/07/20 06:51:16;;;;;;;14.07;8.32;;;;;;;15.75;66.20;102396.03;5012574;28;20105;-72
2021/07/20 06:53:41;;;;;;;12.55;7.88;;;;;;;15.89;65.60;102385.94;5013070;28;20038;-72
2021/07/20 06:56:10;;;;;;;14.25;8.65;;;;;;;16.03;68.01;102394.47;5013042;28;20034;-72
2021/07/20 06:58:40;;;;;;;13.02;7.68;;;;;;;16.17;66.63;102398.59;5012889;28;20029;-72
2021/07/20 07:01:07;;;;;;;14.25;7.95;;;;;;;16.33;66.59;102399.88;5012797;28;20034;-72
2021/07/20 07:03:45;;;;;;;11.50;7.88;;;;;;;16.51;65.22;102389.28;5012212;28;20081;-72
2021/07/20 07:06:13;;;;;;;12.25;8.13;;;;;;;16.60;63.85;102392.97;5012669;28;20034;-72
2021/07/20 07:08:40;;;;;;;11.40;7.97;;;;;;;16.71;65.23;102395.53;5012702;28;20061;-72
2021/07/20 07:11:06;;;;;;;13.10;7.60;;;;;;;16.81;64.22;102401.75;5012766;28;20036;-71
2021/07/20 07:13:34;;;;;;;15.55;7.80;;;;;;;17.04;62.67;102410.38;5012085;28;20618;-72
2021/07/20 07:16:00;;;;;;;12.68;7.80;;;;;;;17.17;60.82;102409.25;5012976;28;20041;-73
2021/07/20 07:18:25;;;;;;;14.75;7.47;;;;;;;17.26;60.54;102403.84;5012031;28;20034;-73
2021/07/20 07:20:53;;;;;;;11.27;7.55;;;;;;;17.36;61.00;102406.50;5012692;28;20030;-73
2021/07/20 07:23:19;;;;;;;11.10;7.25;;;;;;;17.55;61.71;102404.75;5012097;28;20033;-73
2021/07/20 07:25:51;;;;;;;11.73;7.75;;;;;;;17.70;57.96;102403.25;5012429;28;20079;-73
2021/07/20 07:28:18;;;;;;;10.85;7.57;;;;;;;17.70;59.94;102414.03;5010727;28;20077;-73
2021/07/20 07:30:44;;;;;;;12.07;7.50;;;;;;;17.81;59.37;102413.00;5011322;28;20049;-73
2021/07/20 07:33:10;;;;;;;14.80;7.75;;;;;;;17.90;57.93;102405.88;5012291;28;20033;-73
2021/07/20 07:35:36;;;;;;;11.82;7.55;;;;;;;17.92;58.42;102410.13;5011671;28;20430;-74
2021/07/20 07:38:02;;;;;;;12.00;7.95;;;;;;;18.06;58.40;102407.94;5012560;28;20030;-73
2021/07/20 07:40:29;;;;;;;10.38;7.40;;;;;;;18.19;57.84;102407.59;5011579;28;20508;-74
2021/07/20 07:42:57;;;;;;;10.90;7.57;;;;;;;18.42;59.38;102408.84;5012562;28;20030;-73
2021/07/20 07:45:23;;;;;;;15.25;7.18;;;;;;;18.59;58.98;102409.00;5010702;28;20030;-74
2021/07/20 07:47:49;;;;;;;9.20;7.30;;;;;;;18.68;56.89;102411.63;5012482;28;20037;-73
2021/07/20 07:50:15;;;;;;;12.35;6.57;;;;;;;18.81;57.21;102404.97;5012357;28;20468;-73
2021/07/20 07:52:41;;;;;;;9.95;7.13;;;;;;;18.88;54.88;102410.63;5011594;28;20036;-73
2021/07/20 07:55:08;;;;;;;10.95;6.93;;;;;;;18.97;57.05;102407.88;5012020;28;20386;-73
2021/07/20 07:57:34;;;;;;;10.70;7.18;;;;;;;19.03;56.87;102400.97;5011784;28;20045;-73
2021/07/20 08:00:03;;;;;;;11.90;7.30;;;;;;;19.07;53.21;102406.91;5012100;28;20034;-74
2021/07/20 08:02:30;;;;;;;10.98;7.45;;;;;;;19.18;54.46;102410.22;5011443;28;20041;-73
2021/07/20 08:04:58;;;;;;;9.23;7.00;;;;;;;19.03;52.47;102411.75;5012230;28;20034;-73
2021/07/20 08:07:24;;;;;;;9.43;6.80;;;;;;;19.14;54.69;102410.69;5011502;28;20037;-73
2021/07/20 08:09:51;;;;;;;11.27;7.43;;;;;;;19.23;53.58;102409.72;5012343;28;20037;-74
2021/07/20 08:12:17;;;;;;;10.57;7.18;;;;;;;19.28;55.39;102399.28;5011044;28;20034;-73
2021/07/20 08:14:43;;;;;;;9.45;7.10;;;;;;;19.40;54.09;102407.97;5011676;28;20069;-73
2021/07/20 08:17:10;;;;;;;10.75;7.18;;;;;;;19.35;54.28;102404.91;5012141;28;20474;-73
2021/07/20 08:19:40;;;;;;;9.77;6.72;;;;;;;19.63;53.67;102413.69;5011392;28;20041;-72
2021/07/20 08:22:14;;;;;;;12.77;7.35;;;;;;;19.92;52.22;102408.94;5012145;28;20114;-72
2021/07/20 08:24:54;;;;;;;11.38;7.65;;;;;;;19.78;51.95;102410.38;5011765;28;20033;-73
2021/07/20 08:27:26;;;;;;;10.30;7.28;;;;;;;20.06;53.84;102414.56;5012478;28;20077;-73
2021/07/20 08:29:55;;;;;;;11.00;7.28;;;;;;;20.17;51.87;102413.41;5012255;28;20037;-73
2021/07/20 08:32:23;;;;;;;10.30;6.78;;;;;;;20.34;51.88;102408.88;5011774;28;20378;-73
2021/07/20 08:34:55;;;;;;;10.18;6.35;;;;;;;20.60;52.60;102413.31;5011747;28;20489;-73
2021/07/20 08:37:22;;;;;;;12.50;7.00;;;;;;;20.88;51.41;102416.56;5012194;28;20033;-73
2021/07/20 08:39:49;;;;;;;10.95;7.25;;;;;;;21.02;49.90;102411.50;5012154;28;20374;-74
2021/07/20 08:42:23;;;;;;;10.55;6.60;;;;;;;21.29;48.45;102411.13;5015722;28;20046;-74
2021/07/20 08:45:10;;;;;;;8.95;6.95;;;;;;;21.56;47.64;102405.53;5015478;28;20149;-74
2021/07/20 08:47:42;;;;;;;12.75;7.03;;;;;;;21.71;46.56;102395.63;5014886;28;20032;-74
2021/07/20 08:50:15;;;;;;;8.65;6.43;;;;;;;22.07;48.32;102405.97;5015717;28;20076;-74
2021/07/20 08:52:42;;;;;;;12.18;6.60;;;;;;;22.45;44.64;102397.97;5013598;28;20393;-74
2021/07/20 08:55:21;;;;;;;10.20;6.95;;;;;;;22.64;45.13;102404.75;5015269;28;20485;-73
2021/07/20 08:58:01;;;;;;;9.60;6.22;;;;;;;23.26;43.23;102397.47;5014488;28;20067;-74
2021/07/20 09:00:35;;;;;;;8.57;6.53;;;;;;;23.71;42.26;102398.31;5014511;28;20113;-75
2021/07/20 09:03:29;;;;;;;10.35;6.38;;;;;;;24.19;40.72;102402.47;5014775;28;20100;-74
2021/07/20 09:06:03;;;;;;;10.35;6.85;;;;;;;24.72;41.07;102402.16;5014756;28;20034;-74
2021/07/20 09:08:39;;;;;;;9.90;6.30;;;;;;;24.96;40.53;102403.63;5014565;28;20041;-74
2021/07/20 09:11:10;;;;;;;11.23;7.53;;;;;;;25.39;38.01;102403.53;5015016;28;20034;-74
2021/07/20 09:13:38;;;;;;;11.07;6.63;;;;;;;25.90;38.53;102399.59;5014461;28;20026;-74
2021/07/20 09:16:11;;;;;;;8.40;6.68;;;;;;;25.79;37.41;102401.00;5014874;28;20061;-74
2021/07/20 09:18:45;;;;;;;9.88;7.25;;;;;;;26.25;36.04;102401.41;5013177;28;20036;-73
2021/07/20 09:21:13;;;;;;;12.25;7.53;;;;;;;26.40;36.77;102402.91;5015055;28;20030;-74
2021/07/20 09:23:46;;;;;;;9.23;6.88;;;;;;;26.72;36.65;102408.66;5014355;28;20533;-74
2021/07/20 09:26:21;;;;;;;8.68;7.10;;;;;;;26.80;35.42;102410.31;5014963;28;20080;-74
2021/07/20 09:28:55;;;;;;;12.05;7.05;;;;;;;26.04;36.29;102414.97;5014085;28;20444;-74
2021/07/20 09:31:39;;;;;;;11.30;6.72;;;;;;;25.86;38.16;102414.69;5013197;28;20030;-74
2021/07/20 09:34:29;;;;;;;12.57;6.72;;;;;;;25.49;38.83;102414.91;5014820;28;20030;-74
2021/07/20 09:37:09;;;;;;;9.53;7.10;;;;;;;26.48;38.73;102411.94;5013913;28;20512;-74
2021/07/20 09:39:47;;;;;;;10.88;6.68;;;;;;;27.16;34.91;102402.75;5013856;28;20026;-74
2021/07/20 09:42:31;;;;;;;11.52;7.57;;;;;;;27.51;33.46;102403.31;5014434;28;20033;-74
2021/07/20 09:45:05;;;;;;;12.23;7.15;;;;;;;27.94;35.27;102410.91;5013846;28;20030;-74
2021/07/20 09:47:49;;;;;;;7.70;6.53;;;;;;;27.85;33.37;102403.19;5014577;28;20033;-74
2021/07/20 09:50:15;;;;;;;10.50;7.63;;;;;;;27.35;34.34;102403.75;5014602;28;20025;-74
2021/07/20 09:53:12;;;;;;;11.18;7.05;;;;;;;27.88;33.70;102405.50;5012823;28;20049;-74
2021/07/20 09:56:12;;;;;;;9.40;7.32;;;;;;;28.05;32.80;102400.38;5013231;28;20083;-75
2021/07/20 09:58:52;;;;;;;10.38;7.38;;;;;;;28.50;32.09;102400.31;5013848;28;20084;-74
2021/07/20 10:01:31;;;;;;;10.40;7.18;;;;;;;28.70;31.49;102400.19;5014409;28;20037;-74
2021/07/20 10:04:25;;;;;;;9.07;7.32;;;;;;;28.80;30.35;102399.69;5013623;28;20246;-74
2021/07/20 10:07:08;;;;;;;9.35;6.90;;;;;;;28.66;32.11;102405.28;5013349;28;20038;-75
2021/07/20 10:09:41;;;;;;;10.27;7.20;;;;;;;28.80;32.01;102396.94;5014255;28;20073;-74
2021/07/20 10:12:25;;;;;;;8.88;7.03;;;;;;;28.57;32.77;102401.09;5014097;28;20038;-74
2021/07/20 10:15:07;;;;;;;9.32;7.00;;;;;;;28.36;33.38;102405.03;5012102;28;20485;-74
2021/07/20 10:18:01;;;;;;;10.00;7.22;;;;;;;28.58;33.05;102404.69;5013864;28;20041;-74
2021/07/20 10:20:51;;;;;;;12.38;7.95;;;;;;;28.53;30.64;102399.00;5013771;28;20033;-74
2021/07/20 10:23:35;;;;;;;11.98;8.00;;;;;;;28.71;31.34;102392.78;5013649;28;20026;-74
2021/07/20 10:26:16;;;;;;;10.10;6.93;;;;;;;28.79;33.25;102393.34;5013103;28;20025;-74
2021/07/20 10:28:59;;;;;;;12.05;8.00;;;;;;;28.63;33.11;102394.78;5013223;28;20050;-75
2021/07/20 10:31:44;;;;;;;9.43;7.90;;;;;;;29.17;30.90;102388.78;5012229;28;20113;-74
2021/07/20 10:34:15;;;;;;;10.05;7.75;;;;;;;28.40;31.50;102399.97;5013937;28;20029;-75
2021/07/20 10:36:56;;;;;;;10.80;7.28;;;;;;;28.71;31.79;102393.66;5013092;28;20029;-76
2021/07/20 10:39:29;;;;;;;11.35;7.70;;;;;;;28.32;31.21;102392.88;5013435;28;20034;-74
2021/07/20 10:42:32;;;;;;;11.30;7.45;;;;;;;28.73;32.06;102390.69;5012884;28;20419;-74
2021/07/20 10:45:02;;;;;;;7.40;6.45;;;;;;;29.24;29.87;102391.50;5012830;28;20083;-74
2021/07/20 10:47:36;;;;;;;10.57;8.07;;;;;;;28.96;30.50;102384.56;5013553;28;20084;-75
2021/07/20 10:50:19;;;;;;;11.38;7.10;;;;;;;28.59;31.23;102378.97;5012709;28;20244;-74
2021/07/20 10:53:08;;;;;;;13.95;7.88;;;;;;;28.36;32.73;102380.41;5012764;28;20022;-73
2021/07/20 10:56:08;;;;;;;12.63;7.43;;;;;;;28.87;32.66;102377.72;5013014;28;20418;-73
2021/07/20 10:58:49;;;;;;;8.93;7.13;;;;;;;28.49;34.21;102374.00;5013063;28;20045;-74
2021/07/20 11:01:24;;;;;;;9.90;6.78;;;;;;;28.82;31.52;102381.13;5013105;28;20502;-75
2021/07/20 11:04:08;;;;;;;10.38;7.15;;;;;;;28.79;33.02;102378.84;5012140;28;20050;-75
2021/07/20 11:06:37;;;;;;;10.95;7.38;;;;;;;28.25;31.93;102381.13;5009612;28;20045;-75
2021/07/20 11:09:05;;;;;;;10.00;7.30;;;;;;;27.44;36.03;102378.75;5009794;28;20042;-74
2021/07/20 11:11:44;;;;;;;9.25;6.97;;;;;;;28.04;34.58;102371.38;5009891;28;20037;-74
2021/07/20 11:14:11;;;;;;;9.18;6.70;;;;;;;28.56;33.12;102372.06;5010152;28;20076;-74
2021/07/20 11:16:39;;;;;;;9.48;6.97;;;;;;;28.80;32.06;102373.13;5010551;28;20088;-75
2021/07/20 11:19:06;;;;;;;9.05;7.10;;;;;;;29.26;31.92;102368.28;5009411;28;20038;-74
2021/07/20 11:21:32;;;;;;;11.27;7.03;;;;;;;29.06;32.89;102370.38;5010211;28;20136;-75
2021/07/20 11:23:58;;;;;;;11.23;6.80;;;;;;;29.70;32.68;102369.00;5008325;28;20056;-74
2021/07/20 11:26:25;;;;;;;8.82;6.85;;;;;;;29.78;30.66;102367.00;5010207;28;20113;-74
2021/07/20 11:28:51;;;;;;;8.48;7.18;;;;;;;29.01;30.90;102369.13;5011559;28;20057;-75
2021/07/20 11:31:39;;;;;;;9.20;7.10;;;;;;;29.36;31.61;102365.84;5012700;28;20033;-75